Hlavní strana
METAR-TAF:

METAR-TAF

Letiště :

Čeljabinsk, Rusko

zeměpisná šířka: 55-10N, zeměpisná délka: 061-24E, výška: 234 m

Aktuální stav počasí

Zpráva byla vytvořena před 34 minutami, v 14:30 UTC
Jihojihovýchodní vítr 4 kt
Teplota 11°C
Vlhkost vzduchu 47%
Tlak 1025 hPa
Viditelnost 10 km a více
Žádná oblačnost pod 1500 m, nevyskytují se cumulonimby.

METAR: USCC 241430Z 16002MPS CAVOK 11/00 Q1025 R27/000060 NOSIG RMK QFE749

Čas: 20:04 (15:04 UTC)

Předpověď počasí

Zpráva byla vytvořena před 1 hodinou a 4 minutami, v 14:00 UTC
Předpověď platná od 24 v 15 UTC do 25 v 15 UTC
Jihojihovýchodní vítr 6 kt s nárazy do 23 kt
Viditelnost: 6000 m
Polojasno ve výšce 3000 ft
Dočasný
od 24 v 15 UTC do 24 v 24 UTC
Jižní vítr 6 kt s nárazy do 16 kt
Dočasný
od 25 v 00 UTC do 25 v 15 UTC
Jihovýchodní vítr 10 kt s nárazy do 25 kt

TAF: USCC 241400Z 2415/2515 16003G12MPS 6000 SCT030 TEMPO 2415/2424 19003G08MPS TEMPO 2500/2515 14005G13MPS

Stav a předpovědi počasí z více než 4 000 letišť (zprávy METAR a TAF).

Červené a žluté tečky na mapě představují dostupné meteorologické stanice.

Když kurzor umístíte na tečku, zobrazí se název stanice.

Pak kliknutím zobrazíte stav a předpověď počasí.

Chcete-li změnit mapu, kliknutím na zelené tlačítko se znaménkem +mapu přiblížíte, kliknutím na zelené tlačítko se znaménkem – mapu oddálíte a kliknutím na zelené šipky přejdete na sousední mapy.


METAR-TAF: